Time;durP1;ratioP1;P1;durP2;ratioP2;P2;SDS_P1;SDS_P2;PMS_P1;PMS_P2;Temp;Humidity;BMP_temperature;BMP_pressure;BME280_temperature;BME280_humidity;BME280_pressure;Samples;Min_cycle;Max_cycle;Signal;HPM_P1;HPM_P2
2023/07/28 00:01:47;;;;;;;;;;;;;;;17.33;nan;99549.69;5057403;28;19917;-83
2023/07/28 00:04:12;;;;;;;;;;;;;;;17.32;nan;99554.19;5055424;28;19919;-84
2023/07/28 00:06:37;;;;;;;;;;;;;;;17.32;nan;99545.34;5065957;28;19963;-84
2023/07/28 00:09:02;;;;;;;;;;;;;;;17.31;nan;99547.22;5054708;28;19917;-82
2023/07/28 00:11:28;;;;;;;;;;;;;;;17.34;nan;99557.47;5065513;28;20031;-82
2023/07/28 00:13:53;;;;;;;;;;;;;;;17.36;nan;99565.25;5051224;28;20372;-85
2023/07/28 00:16:18;;;;;;;;;;;;;;;;;;5067668;28;19924;-83
2023/07/28 00:18:43;;;;;;;;;;;;;;;;;;5035475;28;20348;-82
2023/07/28 00:21:08;;;;;;;;;;;;;;;17.39;nan;99538.91;5053780;28;19925;-83
2023/07/28 00:23:33;;;;;;;;;;;;;;;17.41;nan;99558.22;5046777;28;20128;-83
2023/07/28 00:25:59;;;;;;;;;;;;;;;17.42;nan;99543.00;5064131;28;19979;-82
2023/07/28 00:28:24;;;;;;;;;;;;;;;;;;5064802;28;19920;-85
2023/07/28 00:30:49;;;;;;;;;;;;;;;17.43;nan;99541.16;5054368;28;20014;-83
2023/07/28 00:33:14;;;;;;;;;;;;;;;;;;5060968;28;19917;-83
2023/07/28 00:35:40;;;;;;;;;;;;;;;17.44;nan;99540.91;5037128;28;19935;-85
2023/07/28 00:38:05;;;;;;;;;;;;;;;17.45;nan;99539.91;5044994;28;19917;-84
2023/07/28 00:40:30;;;;;;;;;;;;;;;17.47;nan;99545.00;5038216;28;20017;-83
2023/07/28 00:42:55;;;;;;;;;;;;;;;17.46;nan;99527.34;5036796;28;19918;-84
2023/07/28 00:45:20;;;;;;;;;;;;;;;17.46;nan;99544.19;5069454;28;20336;-85
2023/07/28 00:47:45;;;;;;;;;;;;;;;;;;5035506;28;19944;-83
2023/07/28 00:50:11;;;;;;;0.10;0.10;;;;;;;;;;5062469;28;19912;-83
2023/07/28 00:52:37;;;;;;;;;;;;;;;17.44;nan;99535.56;5070753;28;20288;-84
2023/07/28 00:55:03;;;;;;;0.20;0.20;;;;;;;17.43;nan;99543.84;5056996;28;20396;-83
2023/07/28 00:57:28;;;;;;;0.10;0.10;;;;;;;17.45;nan;99542.56;5067671;28;20124;-83
2023/07/28 00:59:53;;;;;;;;;;;;;;;17.45;nan;99531.88;5056060;28;20183;-84
2023/07/28 01:02:19;;;;;;;;;;;;;;;17.44;nan;99538.25;5067826;28;19956;-83
2023/07/28 01:04:44;;;;;;;;;;;;;;;;;;5064761;28;20362;-83
2023/07/28 01:07:11;;;;;;;;;;;;;;;17.44;nan;99530.22;5065418;28;20372;-85
2023/07/28 01:09:43;;;;;;;0.10;0.10;;;;;;;;;;5068873;28;19924;-83
2023/07/28 01:12:11;;;;;;;;;;;;;;;17.47;nan;99528.97;5060947;28;20033;-84
2023/07/28 01:14:36;;;;;;;;;;;;;;;17.44;nan;99524.88;5058917;28;19949;-83
2023/07/28 01:17:01;;;;;;;;;;;;;;;17.43;nan;99528.59;5044755;28;19920;-83
2023/07/28 01:19:26;;;;;;;;;;;;;;;17.39;nan;99527.41;5061832;28;20423;-84
2023/07/28 01:22:10;;;;;;;;;;;;;;;17.39;nan;99533.56;5041847;28;19917;-83
2023/07/28 01:24:40;;;;;;;;;;;;;;;17.40;nan;99531.72;5062567;28;20324;-82
2023/07/28 01:27:07;;;;;;;;;;;;;;;17.40;nan;99529.88;5045828;28;19921;-84
2023/07/28 01:29:32;;;;;;;;;;;;;;;17.41;nan;99530.69;5067967;28;19917;-83
2023/07/28 01:31:59;;;;;;;;;;;;;;;17.40;nan;99534.41;5046532;28;19920;-84
2023/07/28 01:34:24;;;;;;;;;;;;;;;17.38;nan;99537.28;5056573;28;19913;-83
2023/07/28 01:36:49;;;;;;;;;;;;;;;17.37;nan;99540.97;5044620;28;20191;-83
2023/07/28 01:39:14;;;;;;;;;;;;;;;17.37;nan;99545.50;5058239;28;19921;-84
2023/07/28 01:41:43;;;;;;;;;;;;;;;;;;5058774;28;19916;-84
2023/07/28 01:44:08;;;;;;;;;;;;;;;;;;5069606;28;19917;-83
2023/07/28 01:46:33;;;;;;;;;;;;;;;17.39;nan;99538.09;5064184;28;20019;-83
2023/07/28 01:48:58;;;;;;;;;;;;;;;17.38;nan;99531.13;5039578;28;19913;-84
2023/07/28 01:51:23;;;;;;;;;;;;;;;17.33;nan;99539.81;5043946;28;19921;-83
2023/07/28 01:53:49;;;;;;;;;;;;;;;17.34;nan;99537.94;5060328;28;19952;-84
2023/07/28 01:56:14;;;;;;;;;;;;;;;17.34;nan;99546.78;5066896;28;20553;-84
2023/07/28 01:58:39;;;;;;;;;;;;;;;17.35;nan;99540.41;5063528;28;20006;-83
2023/07/28 02:01:05;;;;;;;;;;;;;;;17.37;nan;99545.50;5068065;28;20004;-84
2023/07/28 02:03:31;;;;;;;;;;;;;;;17.39;nan;99544.25;5041773;28;19925;-85
2023/07/28 02:05:56;;;;;;;;;;;;;;;17.38;nan;99547.16;5072311;28;19927;-84
2023/07/28 02:08:21;;;;;;;;;;;;;;;;;;5034316;28;19960;-86
2023/07/28 02:10:46;;;;;;;;;;;;;;;17.36;nan;99555.38;5065060;28;19924;-85
2023/07/28 02:13:12;;;;;;;;;;;;;;;17.33;nan;99534.47;5069969;28;19947;-84
2023/07/28 02:15:37;;;;;;;;;;;;;;;;;;5065433;28;19916;-85
2023/07/28 02:18:02;;;;;;;;;;;;;;;17.30;nan;99534.06;5067604;28;20365;-84
2023/07/28 02:20:27;;;;;;;0.20;0.20;;;;;;;;;;5057621;28;20010;-84
2023/07/28 02:22:52;;;;;;;0.20;0.20;;;;;;;17.31;nan;99544.53;5068338;28;20044;-84
2023/07/28 02:25:18;;;;;;;0.15;0.15;;;;;;;17.33;nan;99544.34;5057465;28;20102;-85
2023/07/28 02:27:43;;;;;;;0.10;0.10;;;;;;;;;;5036724;28;20136;-84
2023/07/28 02:30:08;;;;;;;0.10;0.10;;;;;;;;;;5050104;28;20419;-84
2023/07/28 02:32:34;;;;;;;0.10;0.10;;;;;;;;;;5055208;28;20425;-83
2023/07/28 02:34:59;;;;;;;0.10;0.10;;;;;;;;;;5073734;28;20418;-83
2023/07/28 02:37:25;;;;;;;0.00;0.00;;;;;;;;;;5061992;28;20842;-85
2023/07/28 02:39:50;;;;;;;0.10;0.10;;;;;;;;;;5070025;28;20110;-84
2023/07/28 02:42:15;;;;;;;0.10;0.10;;;;;;;;;;5038406;28;20399;-84
2023/07/28 02:44:40;;;;;;;0.10;0.10;;;;;;;;;;5071514;28;20526;-84
2023/07/28 02:47:06;;;;;;;0.10;0.10;;;;;;;17.98;nan;99571.44;5064941;28;20040;-84
2023/07/28 02:49:31;;;;;;;0.10;0.10;;;;;;;;;;5065853;28;20428;-85
2023/07/28 02:51:56;;;;;;;0.10;0.10;;;;;;;;;;5053977;28;20056;-83
2023/07/28 02:54:23;;;;;;;0.10;0.10;;;;;;;;;;5035711;28;20275;-83
2023/07/28 02:56:49;;;;;;;0.10;0.10;;;;;;;17.73;nan;99559.94;5061418;28;20116;-83
2023/07/28 02:59:14;;;;;;;0.10;0.10;;;;;;;;;;5057723;28;20127;-83
2023/07/28 03:01:39;;;;;;;0.10;0.10;;;;;;;;;;5051857;28;20037;-83
2023/07/28 03:04:04;;;;;;;0.10;0.10;;;;;;;-145.28;100.00;119915.91;5068669;28;20133;-84
2023/07/28 03:06:30;;;;;;;0.10;0.10;;;;;;;;;;5059740;28;20037;-83
2023/07/28 03:08:55;;;;;;;0.13;0.13;;;;;;;;;;5063295;28;20112;-83
2023/07/28 03:11:20;;;;;;;0.10;0.10;;;;;;;;;;5051706;28;20032;-83
2023/07/28 03:13:45;;;;;;;0.10;0.10;;;;;;;17.51;nan;99547.00;5047760;28;20280;-83
2023/07/28 03:16:11;;;;;;;0.10;0.10;;;;;;;17.49;nan;99538.41;5066520;28;20032;-83
2023/07/28 03:18:37;;;;;;;0.20;0.20;;;;;;;17.45;nan;99541.72;5059959;28;20039;-83
2023/07/28 03:21:02;;;;;;;0.20;0.20;;;;;;;;;;5062111;28;20464;-84
2023/07/28 03:23:27;;;;;;;0.10;0.10;;;;;;;;;;5057965;28;20041;-84
2023/07/28 03:25:52;;;;;;;0.10;0.10;;;;;;;;;;5066749;28;20279;-84
2023/07/28 03:28:17;;;;;;;0.10;0.10;;;;;;;17.46;nan;99533.50;5036005;28;20502;-84
2023/07/28 03:30:43;;;;;;;0.10;0.10;;;;;;;;;;5042146;28;20048;-84
2023/07/28 03:33:08;;;;;;;0.17;0.17;;;;;;;;;;5038285;28;20120;-84
2023/07/28 03:35:33;;;;;;;0.10;0.10;;;;;;;17.54;nan;99617.94;5040267;28;20486;-84
2023/07/28 03:37:58;;;;;;;0.10;0.10;;;;;;;;;;5042696;28;20275;-84
2023/07/28 03:40:23;;;;;;;0.10;0.10;;;;;;;;;;5033923;28;20052;-84
2023/07/28 03:42:49;;;;;;;0.10;0.10;;;;;;;17.54;nan;99535.06;5063978;28;20040;-84
2023/07/28 03:45:14;;;;;;;0.10;0.10;;;;;;;;;;5065118;28;20366;-83
2023/07/28 03:47:39;;;;;;;0.10;0.10;;;;;;;;;;5037633;28;20033;-84
2023/07/28 03:50:05;;;;;;;0.10;0.10;;;;;;;17.51;nan;99637.09;5062702;28;20036;-84
2023/07/28 03:52:31;;;;;;;0.10;0.10;;;;;;;;;;5041883;28;20037;-84
2023/07/28 03:54:56;;;;;;;0.10;0.10;;;;;;;;;;5068304;28;20060;-85
2023/07/28 03:57:21;;;;;;;0.10;0.10;;;;;;;17.53;nan;99544.13;5047246;28;20155;-84
2023/07/28 03:59:46;;;;;;;0.10;0.10;;;;;;;;;;5046864;28;20043;-84
2023/07/28 04:02:12;;;;;;;0.10;0.10;;;;;;;;;;5034328;28;20033;-85
2023/07/28 04:04:37;;;;;;;0.10;0.10;;;;;;;;;;5039180;28;20645;-84
2023/07/28 04:07:02;;;;;;;0.10;0.10;;;;;;;17.47;nan;99635.88;5068918;28;20829;-84
2023/07/28 04:09:27;;;;;;;0.17;0.17;;;;;;;;;;5056548;28;20032;-84
2023/07/28 04:11:53;;;;;;;0.10;0.10;;;;;;;;;;5049355;28;20103;-85
2023/07/28 04:14:18;;;;;;;0.10;0.10;;;;;;;;;;5049607;28;20282;-84
2023/07/28 04:16:43;;;;;;;0.10;0.10;;;;;;;;;;5064660;28;20358;-84
2023/07/28 04:19:08;;;;;;;0.10;0.10;;;;;;;;;;5031937;28;20040;-84
2023/07/28 04:21:33;;;;;;;0.13;0.13;;;;;;;17.48;nan;99560.81;5044583;28;20043;-84
2023/07/28 04:23:58;;;;;;;0.20;0.20;;;;;;;17.49;nan;99559.78;5046069;28;20041;-84
2023/07/28 04:26:24;;;;;;;;;;;;;;;;;;5043963;28;20049;-84
2023/07/28 04:28:49;;;;;;;0.10;0.10;;;;;;;;;;5057941;28;20395;-84
2023/07/28 04:31:14;;;;;;;0.10;0.10;;;;;;;17.52;nan;99633.34;5035604;28;20066;-85
2023/07/28 04:33:43;;;;;;;0.10;0.10;;;;;;;17.55;nan;99555.41;5051128;28;20037;-84
2023/07/28 04:36:08;;;;;;;0.10;0.10;;;;;;;;;;5052252;28;20024;-84
2023/07/28 04:38:34;;;;;;;0.10;0.10;;;;;;;17.58;nan;99546.94;5047280;28;20053;-83
2023/07/28 04:40:59;;;;;;;0.10;0.10;;;;;;;;;;5040599;28;20029;-84
2023/07/28 04:43:24;;;;;;;0.10;0.10;;;;;;;;;;5065173;28;20028;-84
2023/07/28 04:45:50;;;;;;;0.10;0.10;;;;;;;;;;5035982;28;20087;-85
2023/07/28 04:48:15;;;;;;;0.10;0.10;;;;;;;;;;5051469;28;20111;-84
2023/07/28 04:50:40;;;;;;;0.10;0.10;;;;;;;;;;5040973;28;20035;-84
2023/07/28 04:53:05;;;;;;;0.10;0.10;;;;;;;;;;5045996;28;20536;-84
2023/07/28 04:55:30;;;;;;;0.10;0.10;;;;;;;17.55;nan;99569.59;5053057;28;20117;-83
2023/07/28 04:57:56;;;;;;;0.10;0.10;;;;;;;;;;5051374;28;20104;-84
2023/07/28 05:00:21;;;;;;;0.10;0.10;;;;;;;;;;5060665;28;20342;-83
2023/07/28 05:02:46;;;;;;;0.10;0.10;;;;;;;17.58;nan;99585.19;5032117;28;20457;-83
2023/07/28 05:05:11;;;;;;;0.10;0.10;;;;;;;;;;5050496;28;20071;-84
2023/07/28 05:07:37;;;;;;;0.10;0.10;;;;;;;;;;5052169;28;20187;-84
2023/07/28 05:10:02;;;;;;;0.17;0.17;;;;;;;17.51;nan;99573.75;5046470;28;21807;-84
2023/07/28 05:12:28;;;;;;;0.20;0.20;;;;;;;17.53;nan;99576.22;5032822;28;20056;-84
2023/07/28 05:14:53;;;;;;;0.10;0.10;;;;;;;17.52;nan;99716.22;5058976;28;20623;-84
2023/07/28 05:17:18;;;;;;;0.10;0.10;;;;;;;;;;5044594;28;20033;-85
2023/07/28 05:19:43;;;;;;;0.10;0.10;;;;;;;;;;5031275;28;20563;-84
2023/07/28 05:22:09;;;;;;;0.20;0.20;;;;;;;;;;5048776;28;20298;-84
2023/07/28 05:24:34;;;;;;;0.10;0.10;;;;;;;;;;5037837;28;20123;-84
2023/07/28 05:26:59;;;;;;;0.20;0.20;;;;;;;;;;5029243;28;20029;-84
2023/07/28 05:29:24;;;;;;;0.10;0.10;;;;;;;;;;5058249;28;20341;-84
2023/07/28 05:31:49;;;;;;;0.10;0.10;;;;;;;;;;5024017;28;20517;-84
2023/07/28 05:34:15;;;;;;;0.10;0.10;;;;;;;;;;5040987;28;20045;-84
2023/07/28 05:36:40;;;;;;;0.20;0.20;;;;;;;;;;5049836;28;20040;-84
2023/07/28 05:39:05;;;;;;;0.10;0.10;;;;;;;;;;5041861;28;20036;-84
2023/07/28 05:41:30;;;;;;;0.13;0.13;;;;;;;;;;5049433;28;20028;-84
2023/07/28 05:43:56;;;;;;;0.10;0.10;;;;;;;;;;5046549;28;20378;-85
2023/07/28 05:46:21;;;;;;;0.10;0.10;;;;;;;17.83;nan;99688.66;5046444;28;20534;-84
2023/07/28 05:48:46;;;;;;;0.10;0.10;;;;;;;17.77;nan;99679.63;5044533;28;20056;-84
2023/07/28 05:51:12;;;;;;;0.10;0.10;;;;;;;17.80;nan;99705.09;5050569;28;20040;-84
2023/07/28 05:53:37;;;;;;;0.10;0.10;;;;;;;;;;5049215;28;20060;-84
2023/07/28 05:56:03;;;;;;;0.10;0.10;;;;;;;17.88;nan;99728.13;5067127;28;20033;-84
2023/07/28 05:58:28;;;;;;;0.10;0.10;;;;;;;;;;5048010;28;20052;-84
2023/07/28 06:00:53;;;;;;;0.10;0.10;;;;;;;17.94;nan;99594.31;5039503;28;20346;-85
2023/07/28 06:03:18;;;;;;;0.10;0.10;;;;;;;;;;5066559;28;20028;-84
2023/07/28 06:05:44;;;;;;;;;;;;;;;17.94;nan;99610.34;5065879;28;20063;-84
2023/07/28 06:08:09;;;;;;;0.10;0.10;;;;;;;17.97;nan;99742.84;5043501;28;19916;-83
2023/07/28 06:10:34;;;;;;;0.10;0.10;;;;;;;;;;5061029;28;20064;-84
2023/07/28 06:13:00;;;;;;;0.10;0.10;;;;;;;;;;5061690;28;20040;-84
2023/07/28 06:15:25;;;;;;;0.10;0.10;;;;;;;;;;5019853;28;20288;-84
2023/07/28 06:17:50;;;;;;;0.10;0.10;;;;;;;18.02;nan;99622.63;5034617;28;20372;-83
2023/07/28 06:20:15;;;;;;;0.10;0.10;;;;;;;;;;5054372;28;20526;-83
2023/07/28 06:22:41;;;;;;;0.10;0.10;;;;;;;;;;5038365;28;20044;-85
2023/07/28 06:25:07;;;;;;;0.10;0.10;;;;;;;;;;5053758;28;20287;-85
2023/07/28 06:27:32;;;;;;;0.10;0.10;;;;;;;;;;5049669;28;20035;-85
2023/07/28 06:29:57;;;;;;;0.10;0.10;;;;;;;;;;5058354;28;20029;-85
2023/07/28 06:32:23;;;;;;;0.10;0.10;;;;;;;;;;5059749;28;20283;-85
2023/07/28 06:34:49;;;;;;;0.10;0.10;;;;;;;18.14;nan;99631.56;5049801;28;20041;-85
2023/07/28 06:37:14;;;;;;;0.10;0.10;;;;;;;;;;5062028;28;20165;-84
2023/07/28 06:39:39;;;;;;;0.10;0.10;;;;;;;18.17;nan;99647.16;5060075;28;20033;-85
2023/07/28 06:42:05;;;;;;;0.10;0.10;;;;;;;;;;5052536;28;20039;-85
2023/07/28 06:44:31;;;;;;;0.10;0.10;;;;;;;;;;5053635;28;20032;-85
2023/07/28 06:46:56;;;;;;;0.10;0.10;;;;;;;;;;5059805;28;20083;-84
2023/07/28 06:49:21;;;;;;;0.10;0.10;;;;;;;18.20;nan;99747.56;5044813;28;20386;-85
2023/07/28 06:51:46;;;;;;;0.10;0.10;;;;;;;;;;5044300;28;20043;-85
2023/07/28 06:54:12;;;;;;;0.10;0.10;;;;;;;18.23;nan;99656.97;5056800;28;20116;-85
2023/07/28 06:56:38;;;;;;;0.10;0.10;;;;;;;18.22;nan;99794.47;5052809;28;20045;-84
2023/07/28 06:59:06;;;;;;;0.10;0.10;;;;;;;18.30;nan;99672.13;5050752;28;20119;-84
2023/07/28 07:01:31;;;;;;;0.10;0.10;;;;;;;;;;5043196;28;20032;-84
2023/07/28 07:03:56;;;;;;;0.10;0.10;;;;;;;18.35;nan;99669.59;5032665;28;20040;-84
2023/07/28 07:06:22;;;;;;;0.10;0.10;;;;;;;18.36;nan;99693.47;5032830;28;20125;-85
2023/07/28 07:08:47;;;;;;;0.10;0.10;;;;;;;;;;5058642;28;20041;-84
2023/07/28 07:11:12;;;;;;;0.10;0.10;;;;;;;;;;5046230;28;20029;-83
2023/07/28 07:13:38;;;;;;;0.10;0.10;;;;;;;;;;5050720;28;20498;-84
2023/07/28 07:16:03;;;;;;;0.10;0.10;;;;;;;;;;5061903;28;20067;-85
2023/07/28 07:18:28;;;;;;;0.10;0.10;;;;;;;;;;5036797;28;20044;-85
2023/07/28 07:20:53;;;;;;;;;;;;;;;18.53;nan;99682.16;5051287;28;20300;-84
2023/07/28 07:23:19;;;;;;;0.10;0.10;;;;;;;18.57;nan;99710.13;5059354;28;20158;-84
2023/07/28 07:25:44;;;;;;;0.10;0.10;;;;;;;;;;5052697;28;20037;-84
2023/07/28 07:28:09;;;;;;;0.10;0.10;;;;;;;;;;5053464;28;20279;-84
2023/07/28 07:30:34;;;;;;;0.10;0.10;;;;;;;;;;5033114;28;20411;-84
2023/07/28 07:32:59;;;;;;;0.10;0.10;;;;;;;;;;5059956;28;20044;-84
2023/07/28 07:35:24;;;;;;;0.10;0.10;;;;;;;18.68;nan;99814.59;5061734;28;20375;-85
2023/07/28 07:37:50;;;;;;;0.10;0.10;;;;;;;18.84;nan;99708.78;5039395;28;20120;-84
2023/07/28 07:40:15;;;;;;;0.10;0.10;;;;;;;;;;5054095;28;20056;-85
2023/07/28 07:42:48;;;;;;;0.10;0.10;;;;;;;19.06;nan;99709.09;5042319;28;20033;-83
2023/07/28 07:45:13;;;;;;;0.10;0.10;;;;;;;;;;5049911;28;20068;-85
2023/07/28 07:47:39;;;;;;;0.10;0.10;;;;;;;19.21;nan;99716.75;5065609;28;20033;-84
2023/07/28 07:50:05;;;;;;;0.10;0.10;;;;;;;;;;5064651;28;20071;-85
2023/07/28 07:52:31;;;;;;;0.10;0.10;;;;;;;19.49;nan;99712.59;5051679;28;20040;-82
2023/07/28 07:54:56;;;;;;;0.10;0.10;;;;;;;;;;5053732;28;20035;-85
2023/07/28 07:57:21;;;;;;;0.10;0.10;;;;;;;19.69;nan;99733.78;5064389;28;20313;-84
2023/07/28 07:59:46;;;;;;;0.10;0.10;;;;;;;19.74;nan;99731.22;5043543;28;20520;-84
2023/07/28 08:02:11;;;;;;;0.10;0.10;;;;;;;;;;5063847;28;20025;-84
2023/07/28 08:04:37;;;;;;;0.10;0.10;;;;;;;19.75;nan;99715.94;5067846;28;20278;-86
2023/07/28 08:07:04;;;;;;;0.10;0.10;;;;;;;;;;5049559;28;20075;-84
2023/07/28 08:09:29;;;;;;;0.10;0.10;;;;;;;;;;5063442;28;20041;-82
2023/07/28 08:11:54;;;;;;;0.10;0.10;;;;;;;20.43;nan;99744.88;5059790;28;20420;-84
2023/07/28 08:14:20;;;;;;;0.00;0.00;;;;;;;20.57;nan;99675.63;5066253;28;20029;-82
2023/07/28 08:16:45;;;;;;;0.10;0.10;;;;;;;20.83;nan;99749.47;5068979;28;20040;-83
2023/07/28 08:19:10;;;;;;;0.10;0.10;;;;;;;;;;5058794;28;20079;-83
2023/07/28 08:21:36;;;;;;;;;;;;;;;21.13;nan;99717.00;5067895;28;20049;-83
2023/07/28 08:24:02;;;;;;;0.10;0.10;;;;;;;;;;5070851;28;19987;-83
2023/07/28 08:26:28;;;;;;;0.00;0.00;;;;;;;;;;5048161;28;20413;-84
2023/07/28 08:28:54;;;;;;;0.00;0.00;;;;;;;22.54;100.00;154384.53;5051364;28;20455;-83
2023/07/28 08:31:19;;;;;;;0.00;0.00;;;;;;;22.24;nan;99769.47;5058091;28;20404;-83
2023/07/28 08:33:44;;;;;;;0.00;0.00;;;;;;;22.45;nan;99744.44;5046519;28;20028;-84
2023/07/28 08:36:09;;;;;;;0.10;0.10;;;;;;;;;;5044585;28;20032;-83
2023/07/28 08:38:34;;;;;;;;;;;;;;;22.20;nan;99768.28;5061822;28;20398;-83
2023/07/28 08:41:00;;;;;;;;;;;;;;;22.11;nan;99767.88;5056552;28;19932;-83
2023/07/28 08:43:25;;;;;;;0.00;0.00;;;;;;;;;;5045864;28;19969;-82
2023/07/28 08:45:51;;;;;;;0.00;0.00;;;;;;;;;;5054583;28;20040;-83
2023/07/28 08:48:16;;;;;;;0.00;0.00;;;;;;;;;;5055481;28;20044;-83
2023/07/28 08:50:41;;;;;;;0.00;0.00;;;;;;;22.53;nan;99778.22;5061014;28;20392;-83
2023/07/28 08:53:06;;;;;;;0.03;0.03;;;;;;;;;;5068854;28;20078;-84
2023/07/28 08:55:32;;;;;;;0.00;0.00;;;;;;;;;;5056494;28;20405;-82
2023/07/28 08:58:13;;;;;;;0.00;0.00;;;;;;;;;;5051911;28;20475;-82
2023/07/28 09:00:40;;;;;;;0.00;0.00;;;;;;;23.23;nan;99792.84;5062391;28;20541;-82
2023/07/28 09:03:08;;;;;;;;;;;;;;;23.91;nan;99924.75;5077261;28;20040;-83
2023/07/28 09:05:33;;;;;;;;;;;;;;;24.01;nan;99921.34;5069329;28;20259;-83
2023/07/28 09:07:58;;;;;;;;;;;;;;;23.68;nan;99915.81;5063948;28;19951;-82
2023/07/28 09:10:23;;;;;;;;;;;;;;;23.73;nan;99917.78;5053877;28;20015;-83
2023/07/28 09:12:50;;;;;;;0.00;0.00;;;;;;;23.71;nan;99915.31;5046180;28;20454;-82
2023/07/28 09:15:16;;;;;;;;;;;;;;;23.63;nan;99912.28;5045955;28;20033;-83
2023/07/28 09:17:45;;;;;;;;;;;;;;;23.11;nan;99778.69;5040250;28;19931;-83
2023/07/28 09:20:16;;;;;;;;;;;;;;;22.56;nan;99777.72;5052825;28;19916;-81
2023/07/28 09:22:44;;;;;;;0.00;0.00;;;;;;;;;;5063210;28;19916;-82
2023/07/28 09:25:15;;;;;;;0.00;0.00;;;;;;;21.58;nan;99761.94;5047979;28;20029;-81
2023/07/28 09:27:41;;;;;;;0.10;0.10;;;;;;;;;;5053578;28;20092;-82
2023/07/28 09:30:07;;;;;;;0.10;0.10;;;;;;;;;;5039162;28;20128;-83
2023/07/28 09:32:33;;;;;;;0.00;0.00;;;;;;;;;;5051754;28;20419;-82
2023/07/28 09:35:12;;;;;;;0.00;0.00;;;;;;;;;;5043310;28;20815;-81
2023/07/28 09:37:39;;;;;;;0.00;0.00;;;;;;;20.72;nan;99750.34;5062076;28;20044;-82
2023/07/28 09:40:12;;;;;;;0.10;0.10;;;;;;;20.59;nan;99743.34;5055049;28;20062;-80
2023/07/28 09:42:39;;;;;;;0.00;0.00;;;;;;;20.63;nan;99846.59;5071130;28;20399;-80
2023/07/28 09:45:05;;;;;;;0.10;0.10;;;;;;;;;;5050453;28;20078;-80
2023/07/28 09:47:33;;;;;;;0.10;0.10;;;;;;;20.57;nan;99745.47;5044920;28;20127;-80
2023/07/28 09:50:03;;;;;;;0.10;0.10;;;;;;;20.68;nan;99766.09;5031277;28;20119;-80
2023/07/28 09:52:31;;;;;;;0.10;0.10;;;;;;;;;;5034562;28;20106;-80
2023/07/28 09:54:58;;;;;;;0.10;0.10;;;;;;;;;;5029474;28;20080;-80
2023/07/28 09:57:24;;;;;;;;;;;;;;;20.79;nan;99749.16;5066725;28;20038;-81
2023/07/28 09:59:54;;;;;;;0.10;0.10;;;;;;;20.73;nan;99760.00;5056028;28;20360;-82
2023/07/28 10:02:19;;;;;;;;;;;;;;;20.71;nan;99762.13;5071582;28;20394;-80
2023/07/28 10:04:45;;;;;;;0.10;0.10;;;;;;;;;;5054320;28;19920;-80
2023/07/28 10:07:10;;;;;;;0.00;0.00;;;;;;;;;;5052440;28;20736;-82
2023/07/28 10:09:37;;;;;;;0.00;0.00;;;;;;;;;;5042657;28;20404;-81
2023/07/28 10:12:03;;;;;;;;;;;;;;;21.05;nan;99763.09;5063696;28;20060;-82
2023/07/28 10:14:30;;;;;;;;;;;;;;;21.14;nan;99775.09;5054911;28;19932;-82
2023/07/28 10:16:56;;;;;;;;;;;;;;;21.30;nan;99765.44;5049769;28;19998;-81
2023/07/28 10:19:21;;;;;;;0.10;0.10;;;;;;;;;;5060291;28;19925;-81
2023/07/28 10:21:46;;;;;;;0.00;0.00;;;;;;;22.10;nan;99766.25;5064428;28;20444;-81
2023/07/28 10:24:11;;;;;;;0.00;0.00;;;;;;;;;;5052119;28;20056;-81
2023/07/28 10:26:47;;;;;;;;;;;;;;;22.61;nan;99790.44;5054139;28;20041;-82
2023/07/28 10:29:14;;;;;;;0.00;0.00;;;;;;;22.65;nan;99794.28;5051882;28;20019;-81
2023/07/28 10:31:58;;;;;;;;;;;;;;;22.56;nan;99787.69;5052722;28;20075;-81
2023/07/28 10:34:24;;;;;;;0.00;0.00;;;;;;;22.62;nan;99795.59;5053906;28;19924;-83
2023/07/28 10:36:58;;;;;;;0.10;0.10;;;;;;;;;;5057877;28;20499;-81
2023/07/28 10:39:24;;;;;;;0.10;0.10;;;;;;;;;;5042461;28;20094;-81
2023/07/28 10:42:00;;;;;;;0.00;0.00;;;;;;;;;;5062334;28;20549;-82
2023/07/28 10:44:26;;;;;;;;;;;;;;;22.08;nan;99795.31;5034862;28;20041;-81
2023/07/28 10:46:51;;;;;;;;;;;;;;;22.05;nan;99798.50;5063534;28;20347;-81
2023/07/28 10:49:16;;;;;;;0.10;0.10;;;;;;;;;;5061877;28;21215;-82
2023/07/28 10:51:41;;;;;;;0.00;0.00;;;;;;;;;;5037716;28;20946;-82
2023/07/28 10:54:07;;;;;;;;;;;;;;;22.12;nan;99809.91;5041788;28;20029;-82
2023/07/28 10:56:32;;;;;;;;;;;;;;;22.13;nan;99805.34;5061251;28;19916;-81
2023/07/28 10:58:59;;;;;;;0.00;0.00;;;;;;;22.39;nan;99803.88;5066467;28;19936;-82
2023/07/28 11:01:34;;;;;;;0.00;0.00;;;;;;;22.67;nan;99811.00;5059473;28;20870;-82
2023/07/28 11:04:12;;;;;;;;;;;;;;;22.92;nan;99809.69;5059097;28;20033;-82
2023/07/28 11:06:42;;;;;;;;;;;;;;;22.83;nan;99795.84;5033571;28;19986;-82
2023/07/28 11:09:08;;;;;;;;;;;;;;;22.85;nan;99802.59;5061159;28;19975;-83
2023/07/28 11:11:34;;;;;;;;;;;;;;;22.86;nan;99803.44;5048204;28;20442;-82
2023/07/28 11:13:59;;;;;;;;;;;;;;;22.90;nan;99799.16;5057809;28;20320;-81
2023/07/28 11:16:25;;;;;;;;;;;;;;;22.92;nan;99799.72;5059060;28;19916;-81
2023/07/28 11:18:50;;;;;;;0.00;0.00;;;;;;;;;;5052679;28;19952;-83
2023/07/28 11:21:17;;;;;;;0.00;0.00;;;;;;;23.01;nan;99797.44;5056513;28;20843;-82
2023/07/28 11:23:46;;;;;;;0.00;0.00;;;;;;;;;;5041767;28;20037;-80
2023/07/28 11:26:11;;;;;;;0.00;0.00;;;;;;;;;;5059764;28;20412;-82
2023/07/28 11:28:38;;;;;;;0.00;0.00;;;;;;;23.48;nan;99789.59;5035290;28;20051;-81
2023/07/28 11:31:03;;;;;;;;;;;;;;;23.47;nan;99809.53;5057665;28;20029;-82
2023/07/28 11:33:28;;;;;;;0.00;0.00;;;;;;;23.61;nan;99815.34;5054636;28;19974;-81
2023/07/28 11:35:54;;;;;;;;;;;;;;;23.56;nan;99811.78;5061763;28;20279;-82
2023/07/28 11:38:19;;;;;;;0.00;0.00;;;;;;;;;;5068503;28;19920;-82
2023/07/28 11:40:45;;;;;;;0.00;0.00;;;;;;;23.42;nan;99893.13;5060647;28;20040;-82
2023/07/28 11:43:11;;;;;;;0.00;0.00;;;;;;;23.31;nan;99827.47;5054721;28;20283;-82
2023/07/28 11:45:36;;;;;;;;;;;;;;;23.23;nan;99809.00;5059590;28;20040;-82
2023/07/28 11:48:05;;;;;;;0.10;0.10;;;;;;;;;;5036143;28;19925;-81
2023/07/28 11:50:36;;;;;;;0.00;0.00;;;;;;;;;;5049738;28;20171;-83
2023/07/28 11:53:01;;;;;;;0.10;0.10;;;;;;;23.22;nan;99790.41;5034653;28;20454;-81
2023/07/28 11:55:28;;;;;;;0.00;0.00;;;;;;;23.19;nan;99820.56;5056437;28;20055;-82
2023/07/28 11:57:53;;;;;;;0.00;0.00;;;;;;;;;;5068847;28;20115;-82
2023/07/28 12:00:27;;;;;;;0.00;0.00;;;;;;;23.05;nan;99804.78;5056820;28;20171;-82
2023/07/28 12:02:59;;;;;;;0.00;0.00;;;;;;;;;;5056814;28;20127;-82
2023/07/28 12:05:25;;;;;;;0.00;0.00;;;;;;;;;;5069057;28;20058;-81
2023/07/28 12:07:50;;;;;;;0.00;0.00;;;;;;;;;;5060591;28;20037;-81
2023/07/28 12:10:15;;;;;;;0.03;0.03;;;;;;;22.74;nan;99817.03;5049830;28;20035;-81
2023/07/28 12:12:46;;;;;;;0.03;0.03;;;;;;;22.54;nan;99811.34;5048921;28;20706;-81
2023/07/28 12:15:18;;;;;;;0.00;0.00;;;;;;;;;;5033293;28;20048;-82
2023/07/28 12:18:19;;;;;;;0.00;0.00;;;;;;;22.20;nan;99789.84;5037684;28;20033;-81
2023/07/28 12:20:46;;;;;;;;;;;;;;;22.13;nan;99811.53;5025390;28;20124;-81
2023/07/28 12:23:13;;;;;;;0.00;0.00;;;;;;;22.19;nan;99798.97;5042675;28;19920;-83
2023/07/28 12:25:39;;;;;;;0.10;0.10;;;;;;;22.26;nan;99815.78;5050968;28;20033;-81
2023/07/28 12:28:05;;;;;;;0.10;0.10;;;;;;;22.32;nan;99820.22;5058810;28;20381;-82
2023/07/28 12:30:30;;;;;;;0.10;0.10;;;;;;;;;;5043511;28;20455;-81
2023/07/28 12:32:55;;;;;;;0.10;0.10;;;;;;;;;;5056735;28;20078;-82
2023/07/28 12:35:26;;;;;;;0.00;0.00;;;;;;;22.27;nan;99812.88;5019917;28;20034;-81
2023/07/28 12:37:52;;;;;;;0.00;0.00;;;;;;;;;;5042825;28;20041;-81
2023/07/28 12:40:19;;;;;;;0.00;0.00;;;;;;;22.00;nan;99791.16;5062644;28;20051;-82
2023/07/28 12:42:44;;;;;;;0.10;0.10;;;;;;;;;;5033998;28;20048;-81
2023/07/28 12:45:11;;;;;;;0.10;0.10;;;;;;;21.88;nan;99819.19;5055269;28;20040;-81
2023/07/28 12:47:36;;;;;;;0.10;0.10;;;;;;;;;;5034971;28;20514;-81
2023/07/28 12:50:01;;;;;;;0.00;0.00;;;;;;;;;;5055807;28;20075;-81
2023/07/28 12:52:27;;;;;;;0.10;0.10;;;;;;;;;;5031490;28;20090;-82
2023/07/28 12:54:52;;;;;;;0.00;0.00;;;;;;;;;;5044897;28;20541;-81
2023/07/28 12:57:18;;;;;;;0.10;0.10;;;;;;;;;;5054871;28;20913;-82
2023/07/28 12:59:43;;;;;;;0.00;0.00;;;;;;;;;;5042862;28;20124;-82
2023/07/28 13:02:08;;;;;;;0.10;0.10;;;;;;;;;;5039404;28;20054;-81
2023/07/28 13:04:33;;;;;;;0.10;0.10;;;;;;;21.89;nan;99740.09;5058698;28;20032;-82
2023/07/28 13:07:00;;;;;;;0.10;0.10;;;;;;;;;;5023841;28;20033;-83
2023/07/28 13:09:25;;;;;;;0.10;0.10;;;;;;;21.97;nan;99833.88;5033711;28;20063;-83
2023/07/28 13:11:50;;;;;;;0.00;0.00;;;;;;;22.03;nan;99839.13;5034884;28;20033;-83
2023/07/28 13:14:16;;;;;;;0.00;0.00;;;;;;;22.05;nan;99927.72;5054732;28;20038;-83
2023/07/28 13:16:41;;;;;;;0.10;0.10;;;;;;;;;;5050745;28;20041;-83
2023/07/28 13:19:06;;;;;;;0.00;0.00;;;;;;;;;;5052695;28;20380;-83
2023/07/28 13:21:33;;;;;;;0.10;0.10;;;;;;;21.93;nan;99833.56;5056553;28;20372;-84